Time;durP1;ratioP1;P1;durP2;ratioP2;P2;SDS_P1;SDS_P2;PMS_P1;PMS_P2;Temp;Humidity;BMP_temperature;BMP_pressure;BME280_temperature;BME280_humidity;BME280_pressure;Samples;Min_cycle;Max_cycle;Signal;HPM_P1;HPM_P2
2023/08/14 00:01:12;;;;;;;2.20;1.93;;;21.80;93.70;;;;;;6009852;23;20482;-84
2023/08/14 00:07:30;;;;;;;3.50;2.33;;;22.60;94.90;;;;;;6124203;23;20527;-82
2023/08/14 00:10:34;;;;;;;2.70;2.33;;;21.80;94.20;;;;;;5976202;24;20476;-83
2023/08/14 00:13:23;;;;;;;3.30;2.20;;;22.20;95.20;;;;;;5920026;24;20414;-86
2023/08/14 00:15:58;;;;;;;5.23;2.30;;;22.10;93.50;;;;;;5921533;24;20437;-83
2023/08/14 00:18:53;;;;;;;;;;;;;;;;;;;;;
2023/08/14 00:22:17;;;;;;;2.63;2.07;;;21.80;94.20;;;;;;5923999;24;20448;-82
2023/08/14 00:28:26;;;;;;;3.07;2.37;;;21.80;94.30;;;;;;5914291;24;20441;-85
2023/08/14 00:31:16;;;;;;;4.03;2.33;;;21.70;95.50;;;;;;5920093;24;20426;-85
2023/08/14 00:34:47;;;;;;;3.10;2.50;;;21.90;96.00;;;;;;5920981;24;20519;-81
2023/08/14 00:38:11;;;;;;;3.50;2.50;;;21.20;95.30;;;;;;5912559;24;20406;-84
2023/08/14 00:41:06;;;;;;;7.20;2.60;;;22.60;96.60;;;;;;5903998;24;20809;-84
2023/08/14 00:43:59;;;;;;;3.27;2.37;;;21.80;97.00;;;;;;5937101;24;20418;-85
2023/08/14 00:46:41;;;;;;;2.90;2.30;;;22.10;97.30;;;;;;6093195;23;20813;-83
2023/08/14 00:49:35;;;;;;;4.70;2.83;;;21.90;96.90;;;;;;6040280;23;20403;-83
2023/08/14 00:52:08;;;;;;;7.33;2.70;;;21.70;97.90;;;;;;6030903;23;20406;-85
2023/08/14 00:54:46;;;;;;;2.50;2.27;;;22.20;99.20;;;;;;6038527;23;20398;-84
2023/08/14 00:57:23;;;;;;;4.80;2.70;;;21.50;97.00;;;;;;6063505;23;20409;-83
2023/08/14 01:00:19;;;;;;;2.53;2.33;;;21.80;97.60;;;;;;6062197;23;21036;-81
2023/08/14 01:03:30;;;;;;;2.27;1.80;;;21.30;97.90;;;;;;6048106;23;20396;-83
2023/08/14 01:06:17;;;;;;;3.83;1.97;;;21.40;98.20;;;;;;6058673;23;20430;-83
2023/08/14 01:09:47;;;;;;;3.00;2.30;;;21.50;98.70;;;;;;6053751;23;20803;-83
2023/08/14 01:13:11;;;;;;;4.50;2.60;;;21.70;98.60;;;;;;6036832;23;20426;-82
2023/08/14 01:16:16;;;;;;;4.83;2.37;;;21.40;97.90;;;;;;6037673;23;20537;-84
2023/08/14 01:19:37;;;;;;;2.80;1.80;;;21.70;98.70;;;;;;6063906;23;20434;-83
2023/08/14 01:22:23;;;;;;;3.00;2.30;;;21.80;99.10;;;;;;6060137;23;21152;-83
2023/08/14 01:25:49;;;;;;;3.80;2.07;;;21.40;99.00;;;;;;6061890;23;20966;-81
2023/08/14 01:29:02;;;;;;;2.60;2.30;;;21.00;98.90;;;;;;6162104;23;20444;-83
2023/08/14 01:32:25;;;;;;;2.73;2.27;;;21.40;99.40;;;;;;6156642;23;20473;-83
2023/08/14 01:38:01;;;;;;;3.90;2.07;;;20.90;99.30;;;;;;6119716;23;20925;-82
2023/08/14 01:41:19;;;;;;;5.00;2.00;;;20.80;99.40;;;;;;6099651;23;20500;-82
2023/08/14 01:44:11;;;;;;;2.80;2.60;;;20.90;99.60;;;;;;6119605;23;21044;-83
2023/08/14 01:47:28;;;;;;;4.50;3.10;;;20.30;98.70;;;;;;6091546;23;20449;-83
2023/08/14 01:50:13;;;;;;;2.73;2.47;;;20.90;98.60;;;;;;6070802;23;20954;-83
2023/08/14 01:53:13;;;;;;;5.23;2.80;;;20.80;99.50;;;;;;6080256;23;20408;-83
2023/08/14 01:56:24;;;;;;;3.50;2.63;;;22.10;99.90;;;;;;6082161;23;20424;-83
2023/08/14 01:59:45;;;;;;;3.33;3.03;;;20.20;98.00;;;;;;6087982;23;20433;-83
2023/08/14 02:02:52;;;;;;;5.00;2.20;;;21.00;97.70;;;;;;6086642;23;20436;-83
2023/08/14 02:05:39;;;;;;;4.50;2.83;;;20.60;96.70;;;;;;6078250;23;20533;-82
2023/08/14 02:08:42;;;;;;;4.33;3.03;;;21.40;97.90;;;;;;6160689;23;20461;-81
2023/08/14 02:12:13;;;;;;;4.30;3.17;;;21.70;97.40;;;;;;6075933;23;20420;-81
2023/08/14 02:18:06;;;;;;;6.30;3.10;;;20.30;96.90;;;;;;6160036;23;20458;-82
2023/08/14 02:21:11;;;;;;;6.73;3.20;;;20.60;97.20;;;;;;6114125;23;20446;-83
2023/08/14 02:27:35;;;;;;;4.40;3.30;;;20.50;96.70;;;;;;6151021;23;20465;-83
2023/08/14 02:30:47;;;;;;;;;;;;;;;;;;;;;
2023/08/14 02:34:16;;;;;;;;;;;;;;;;;;;;;
2023/08/14 02:37:09;;;;;;;;;;;;;;;;;;;;;
2023/08/14 02:40:31;;;;;;;3.17;2.53;;;20.90;98.10;;;;;;6097787;23;20483;-84
2023/08/14 02:43:49;;;;;;;4.53;3.10;;;20.40;99.10;;;;;;6122711;23;20411;-84
2023/08/14 02:46:46;;;;;;;3.00;2.70;;;21.20;99.90;;;;;;6147143;23;20466;-82
2023/08/14 02:49:43;;;;;;;4.80;2.70;;;19.80;99.90;;;;;;6114179;23;20900;-83
2023/08/14 02:52:38;;;;;;;3.40;3.10;;;20.90;99.90;;;;;;6134146;23;20824;-83
2023/08/14 02:55:31;;;;;;;3.77;3.20;;;20.50;99.90;;;;;;6154316;23;20430;-83
2023/08/14 03:12:16;;;;;;;3.10;2.77;;;19.70;99.90;;;;;;6100784;23;20813;-84
2023/08/14 03:18:20;;;;;;;2.80;2.50;;;19.50;99.90;;;;;;6173284;23;20438;-83
2023/08/14 03:21:33;;;;;;;3.27;2.97;;;19.60;99.90;;;;;;6152127;23;20391;-82
2023/08/14 03:31:31;;;;;;;6.03;3.20;;;19.50;99.90;;;;;;5995851;23;20748;-80
2023/08/14 03:36:55;;;;;;;4.90;3.00;;;18.80;99.90;;;;;;6149605;23;20466;-82
2023/08/14 04:02:18;;;;;;;8.43;3.50;;;19.10;99.90;;;;;;5995124;23;20417;-82
2023/08/14 04:11:04;;;;;;;;;;;;;;;;;;;;;
2023/08/14 04:18:13;;;;;;;;;;;;;;;;;;;;;
2023/08/14 04:28:04;;;;;;;4.60;2.90;;;18.60;99.90;;;;;;6123407;23;20501;-83
2023/08/14 04:30:48;;;;;;;3.93;2.60;;;18.60;99.90;;;;;;6087964;23;20423;-83
2023/08/14 04:40:00;;;;;;;3.30;2.93;;;18.70;99.90;;;;;;6109572;23;20482;-84
2023/08/14 04:42:56;;;;;;;3.10;2.80;;;19.70;99.90;;;;;;6175148;23;20387;-83
2023/08/14 04:45:47;;;;;;;5.40;3.17;;;19.50;99.90;;;;;;6151810;23;20427;-84
2023/08/14 04:48:42;;;;;;;3.90;2.90;;;18.50;99.90;;;;;;6174824;23;20502;-82
2023/08/14 04:51:23;;;;;;;3.20;2.87;;;19.20;99.90;;;;;;6137994;23;20424;-83
2023/08/14 04:54:36;;;;;;;4.70;2.90;;;19.00;99.90;;;;;;6133799;23;20476;-81
2023/08/14 04:57:37;;;;;;;4.53;2.90;;;19.40;99.90;;;;;;6133649;23;20449;-83
2023/08/14 05:01:27;;;;;;;4.00;2.80;;;18.40;99.90;;;;;;6136736;23;20477;-84
2023/08/14 05:04:18;;;;;;;3.90;3.30;;;19.00;99.90;;;;;;6113937;23;20406;-85
2023/08/14 05:07:05;;;;;;;3.00;2.80;;;19.50;99.90;;;;;;6014073;23;20466;-82
2023/08/14 05:13:01;;;;;;;4.60;3.00;;;19.30;99.90;;;;;;6040015;23;20402;-81
2023/08/14 05:15:39;;;;;;;3.73;3.27;;;19.90;99.90;;;;;;6012289;23;20899;-84
2023/08/14 05:18:35;;;;;;;3.97;3.40;;;19.10;99.90;;;;;;6005071;23;20418;-84
2023/08/14 05:21:43;;;;;;;4.67;4.17;;;18.70;99.90;;;;;;6012032;23;20474;-84
2023/08/14 05:24:21;;;;;;;4.47;3.77;;;19.00;99.90;;;;;;6019312;23;20424;-84
2023/08/14 05:27:08;;;;;;;7.30;4.80;;;19.50;99.90;;;;;;6153025;23;20446;-85
2023/08/14 05:29:48;;;;;;;8.40;3.97;;;18.70;99.90;;;;;;6127766;23;20420;-83
2023/08/14 05:32:34;;;;;;;5.60;4.00;;;19.20;99.90;;;;;;6132324;23;20467;-83
2023/08/14 05:35:24;;;;;;;6.53;3.50;;;18.80;99.90;;;;;;6129813;23;20431;-82
2023/08/14 05:41:51;;;;;;;6.73;3.83;;;18.60;99.90;;;;;;6133232;22;20688;-83
2023/08/14 05:44:50;;;;;;;8.97;3.90;;;19.10;99.90;;;;;;6113553;23;20504;-84
2023/08/14 05:47:50;;;;;;;6.87;3.57;;;19.40;99.90;;;;;;6030000;23;20466;-82
2023/08/14 05:51:22;;;;;;;4.23;3.83;;;19.50;99.90;;;;;;5929565;24;21386;-83
2023/08/14 05:54:27;;;;;;;4.70;3.37;;;19.00;99.90;;;;;;5928205;24;20558;-84
2023/08/14 05:57:37;;;;;;;6.17;3.40;;;19.30;99.90;;;;;;5847899;24;21128;-84
2023/08/14 06:00:49;;;;;;;;;;;;;;;;;;;;;
2023/08/14 06:11:10;;;;;;;;;;;;;;;;;;;;;
2023/08/14 06:18:10;;;;;;;;;;;;;;;;;;;;;
2023/08/14 06:21:45;;;;;;;4.83;2.90;;;19.60;99.90;;;;;;6143804;23;20431;-84
2023/08/14 06:54:18;;;;;;;3.00;2.70;;;21.80;97.90;;;;;;6142121;23;20516;-82
2023/08/14 06:57:27;;;;;;;2.10;1.90;;;22.10;98.40;;;;;;6122962;23;20406;-81
2023/08/14 07:04:54;;;;;;;3.53;2.60;;;20.80;98.50;;;;;;6111696;23;20493;-82
2023/08/14 07:07:50;;;;;;;4.33;2.97;;;21.10;99.00;;;;;;6116350;23;20435;-83
2023/08/14 07:16:53;;;;;;;2.40;2.20;;;22.30;97.00;;;;;;6138244;23;20505;-83
2023/08/14 07:19:51;;;;;;;4.80;2.40;;;23.20;95.50;;;;;;6143223;23;20421;-84
2023/08/14 07:23:00;;;;;;;3.17;2.57;;;23.80;96.60;;;;;;6076254;23;20494;-83
2023/08/14 07:26:23;;;;;;;2.70;2.50;;;22.70;95.10;;;;;;6074721;23;20466;-84
2023/08/14 07:29:25;;;;;;;2.50;1.80;;;23.50;95.90;;;;;;6121304;23;20454;-84
2023/08/14 07:32:30;;;;;;;3.30;2.57;;;23.10;94.40;;;;;;6127009;23;20488;-84
2023/08/14 07:42:32;;;;;;;2.47;2.27;;;24.60;94.10;;;;;;6052882;23;20416;-85
2023/08/14 07:58:34;;;;;;;2.50;2.03;;;27.60;81.90;;;;;;6152552;23;20497;-84
2023/08/14 08:01:46;;;;;;;2.90;2.20;;;29.30;79.40;;;;;;6157298;23;20465;-84
2023/08/14 08:05:11;;;;;;;2.97;1.97;;;29.20;76.40;;;;;;6017776;23;20757;-84
2023/08/14 08:08:23;;;;;;;2.50;1.87;;;28.40;75.30;;;;;;6034690;23;20446;-84
2023/08/14 08:15:48;;;;;;;1.60;1.50;;;28.80;70.50;;;;;;5948904;23;20446;-84
2023/08/14 08:23:36;;;;;;;;;;;;;;;;;;;;;
2023/08/14 08:30:31;;;;;;;3.33;1.80;;;34.70;54.30;;;;;;6110186;23;20434;-85
2023/08/14 08:37:22;;;;;;;2.67;1.90;;;35.00;52.90;;;;;;6108164;23;20401;-82
2023/08/14 08:40:30;;;;;;;4.07;2.17;;;35.40;51.00;;;;;;6128098;23;20519;-85
2023/08/14 08:49:45;;;;;;;2.70;1.80;;;34.50;51.30;;;;;;6152738;23;20457;-85
2023/08/14 08:52:51;;;;;;;3.30;1.80;;;34.80;51.20;;;;;;6061426;23;20416;-85
2023/08/14 08:55:58;;;;;;;;;;;;;;;;;;;;;
2023/08/14 08:59:12;;;;;;;6.17;2.30;;;34.00;51.90;;;;;;6063800;23;20512;-83
2023/08/14 09:01:55;;;;;;;;;;;;;;;;;;;;;
2023/08/14 09:08:20;;;;;;;4.67;2.27;;;34.10;50.70;;;;;;6126164;23;20458;-85
2023/08/14 09:18:46;;;;;;;3.00;2.27;;;29.80;57.60;;;;;;6151374;23;20564;-84
2023/08/14 09:21:33;;;;;;;2.50;1.83;;;28.70;61.80;;;;;;6114457;23;20501;-83
2023/08/14 09:40:16;;;;;;;2.30;2.00;;;29.10;63.50;;;;;;6140439;23;20826;-85
2023/08/14 09:54:04;;;;;;;2.60;2.00;;;28.10;67.40;;;;;;6078914;23;21108;-84
2023/08/14 09:57:38;;;;;;;2.40;2.03;;;27.60;68.50;;;;;;6072129;23;20884;-83
2023/08/14 10:01:20;;;;;;;2.93;2.27;;;27.60;71.30;;;;;;6005058;23;20493;-82
2023/08/14 10:08:03;;;;;;;5.17;2.47;;;26.70;70.70;;;;;;6158819;23;20470;-84
2023/08/14 10:14:25;;;;;;;2.03;1.77;;;26.30;73.30;;;;;;6082528;23;20516;-84
2023/08/14 10:17:34;;;;;;;2.60;2.03;;;27.90;72.50;;;;;;6086513;23;20477;-83
2023/08/14 10:27:28;;;;;;;3.20;1.80;;;29.50;61.50;;;;;;6150565;23;21363;-82
2023/08/14 10:30:50;;;;;;;3.10;2.03;;;30.10;63.60;;;;;;6153655;23;20414;-83
2023/08/14 10:34:13;;;;;;;3.30;2.13;;;29.30;65.70;;;;;;6116532;23;20399;-84
2023/08/14 10:45:21;;;;;;;;;;;;;;;;;;;;;
2023/08/14 10:48:23;;;;;;;3.40;1.73;;;31.10;59.10;;;;;;5932900;24;20456;-85
2023/08/14 10:51:31;;;;;;;3.00;1.93;;;32.00;58.70;;;;;;5864640;24;21647;-83
2023/08/14 10:58:30;;;;;;;2.30;2.10;;;31.10;57.70;;;;;;5826471;24;20485;-84
2023/08/14 11:01:58;;;;;;;;;;;;;;;;;;;;;
2023/08/14 11:05:37;;;;;;;3.40;2.13;;;31.60;56.80;;;;;;5871969;24;20449;-84
2023/08/14 11:08:38;;;;;;;5.13;2.20;;;31.00;57.70;;;;;;5792104;24;20503;-84
2023/08/14 11:19:12;;;;;;;4.90;2.07;;;28.20;65.20;;;;;;5897882;24;20399;-84
2023/08/14 11:43:45;;;;;;;3.47;2.50;;;26.60;73.70;;;;;;6142725;23;20417;-85
2023/08/14 11:47:04;;;;;;;3.73;2.20;;;26.50;74.90;;;;;;6114284;23;20844;-83
2023/08/14 11:50:15;;;;;;;3.57;3.10;;;26.70;78.80;;;;;;6135321;23;20407;-83
2023/08/14 11:56:40;;;;;;;4.10;2.50;;;27.10;80.10;;;;;;6113197;23;20538;-84
2023/08/14 11:59:52;;;;;;;5.60;2.60;;;27.10;83.80;;;;;;6123767;23;20399;-82
2023/08/14 12:06:16;;;;;;;3.27;2.03;;;27.30;83.80;;;;;;6155299;23;20473;-84
2023/08/14 12:27:59;;;;;;;2.93;2.00;;;28.20;82.90;;;;;;6137791;23;20457;-84
2023/08/14 12:31:21;;;;;;;2.33;1.70;;;28.60;84.10;;;;;;6175479;23;20409;-85
2023/08/14 12:37:41;;;;;;;2.33;2.10;;;28.40;86.30;;;;;;6132117;23;20463;-85
2023/08/14 12:40:49;;;;;;;3.07;2.77;;;28.90;84.80;;;;;;6107382;23;20878;-83
2023/08/14 12:44:13;;;;;;;;;;;;;;;;;;;;;
2023/08/14 12:47:21;;;;;;;4.23;2.50;;;28.60;90.10;;;;;;6019532;23;20732;-82
2023/08/14 12:50:44;;;;;;;3.43;1.90;;;27.50;91.00;;;;;;6002125;23;20422;-82
2023/08/14 12:54:14;;;;;;;2.80;2.17;;;27.60;91.60;;;;;;6007010;23;20412;-81
2023/08/14 12:57:26;;;;;;;4.37;2.07;;;27.70;88.70;;;;;;6053173;23;20891;-83
2023/08/14 13:01:13;;;;;;;3.40;2.30;;;28.90;86.90;;;;;;6007969;23;20461;-82
2023/08/14 13:08:40;;;;;;;3.67;2.17;;;28.90;82.60;;;;;;5894736;24;20456;-83
2023/08/14 13:15:54;;;;;;;3.20;2.10;;;29.00;80.00;;;;;;5916010;24;20402;-84
2023/08/14 13:19:22;;;;;;;4.43;2.23;;;29.20;80.30;;;;;;5865042;24;20701;-83
2023/08/14 13:33:33;;;;;;;3.67;2.33;;;28.70;82.90;;;;;;5891396;24;20464;-83
2023/08/14 13:37:39;;;;;;;;;;;;;;;;;;;;;
2023/08/14 13:44:41;;;;;;;2.30;2.10;;;29.60;82.50;;;;;;5820993;24;20416;-84
2023/08/14 13:47:46;;;;;;;4.07;1.70;;;29.70;82.60;;;;;;5815470;24;21379;-82
2023/08/14 13:54:48;;;;;;;;;;;;;;;;;;;;;
2023/08/14 13:58:23;;;;;;;2.80;2.17;;;29.10;85.30;;;;;;5919995;24;20498;-83
2023/08/14 14:01:33;;;;;;;2.67;2.23;;;30.00;83.80;;;;;;5926509;24;20521;-83
2023/08/14 14:10:23;;;;;;;6.00;2.50;;;29.10;86.80;;;;;;6125588;23;20546;-82
2023/08/14 14:13:33;;;;;;;2.60;2.40;;;30.10;89.50;;;;;;6123803;23;20460;-84
2023/08/14 14:16:39;;;;;;;3.10;2.20;;;29.70;87.10;;;;;;6094008;23;20434;-86
2023/08/14 14:19:44;;;;;;;2.50;2.20;;;29.70;88.90;;;;;;5958440;23;21180;-84
2023/08/14 14:25:59;;;;;;;4.37;2.53;;;29.10;90.00;;;;;;5981560;23;20515;-84
2023/08/14 14:32:04;;;;;;;3.13;2.83;;;29.10;91.40;;;;;;6008144;23;20422;-83
2023/08/14 14:35:27;;;;;;;;;;;;;;;;;;;;;
2023/08/14 14:42:25;;;;;;;3.73;2.70;;;28.90;92.90;;;;;;5847868;24;20492;-83
2023/08/14 14:45:10;;;;;;;2.90;2.70;;;28.40;94.00;;;;;;5919107;24;20450;-85
2023/08/14 14:48:07;;;;;;;6.77;3.27;;;28.30;94.20;;;;;;5920960;24;20453;-83
2023/08/14 14:50:46;;;;;;;4.97;2.60;;;28.10;94.70;;;;;;5921847;24;20505;-84
2023/08/14 14:53:40;;;;;;;3.47;2.63;;;27.60;95.60;;;;;;5899118;24;20430;-85
2023/08/14 14:56:48;;;;;;;3.43;2.27;;;27.90;95.90;;;;;;5942485;24;21057;-82
2023/08/14 14:59:47;;;;;;;2.40;2.20;;;28.20;94.40;;;;;;6095700;23;20427;-83
2023/08/14 15:02:38;;;;;;;2.80;2.60;;;28.10;95.80;;;;;;6093809;23;20478;-83
2023/08/14 15:05:09;;;;;;;3.50;2.70;;;27.60;96.00;;;;;;6095037;23;20455;-84
2023/08/14 15:07:57;;;;;;;2.57;2.37;;;27.70;97.30;;;;;;6118519;23;20426;-85
2023/08/14 15:10:37;;;;;;;2.87;2.40;;;28.50;97.40;;;;;;6096205;23;21342;-83
2023/08/14 15:13:39;;;;;;;4.20;2.63;;;27.80;97.50;;;;;;6097008;23;20419;-81
2023/08/14 15:16:34;;;;;;;4.40;3.00;;;28.20;96.30;;;;;;6090942;23;20463;-84
2023/08/14 15:19:17;;;;;;;2.90;2.70;;;27.50;94.50;;;;;;6097441;23;20419;-84
2023/08/14 15:21:56;;;;;;;3.00;2.70;;;27.70;94.20;;;;;;6097783;23;20419;-81
2023/08/14 15:24:35;;;;;;;3.83;2.77;;;27.80;94.80;;;;;;6103960;23;20462;-82
2023/08/14 15:31:08;;;;;;;2.73;2.53;;;27.60;94.70;;;;;;6125194;23;20394;-82
2023/08/14 15:36:55;;;;;;;3.30;2.90;;;27.80;94.50;;;;;;6150931;23;20457;-85
2023/08/14 15:39:44;;;;;;;;;;;;;;;;;;;;;
2023/08/14 15:42:30;;;;;;;;;;;;;;;;;;;;;
2023/08/14 15:45:20;;;;;;;3.30;3.00;;;27.50;96.20;;;;;;6151086;23;20937;-82
2023/08/14 15:48:17;;;;;;;2.90;2.70;;;27.40;96.00;;;;;;6130465;23;20490;-82
2023/08/14 15:51:00;;;;;;;3.30;2.43;;;26.80;97.10;;;;;;6128675;23;20896;-84
2023/08/14 15:54:08;;;;;;;3.13;2.77;;;27.40;96.60;;;;;;6153448;23;20911;-83
2023/08/14 15:57:25;;;;;;;2.97;2.77;;;27.70;96.40;;;;;;6106449;23;20460;-83
2023/08/14 16:00:17;;;;;;;2.70;2.50;;;28.00;96.80;;;;;;6098948;23;20455;-84
2023/08/14 16:03:15;;;;;;;3.00;2.80;;;27.90;96.10;;;;;;6106839;23;20435;-84
2023/08/14 16:09:19;;;;;;;3.23;2.90;;;27.40;96.10;;;;;;6112164;23;20436;-84
2023/08/14 16:12:31;;;;;;;3.43;3.00;;;27.60;96.10;;;;;;6105091;23;20435;-82
2023/08/14 16:15:16;;;;;;;3.20;2.70;;;27.60;96.30;;;;;;6126051;23;20431;-84
2023/08/14 16:20:44;;;;;;;4.40;2.90;;;27.60;95.00;;;;;;6144461;23;20508;-86
2023/08/14 16:23:26;;;;;;;3.23;2.93;;;27.60;95.90;;;;;;6154009;23;20461;-83
2023/08/14 16:26:09;;;;;;;3.23;2.93;;;27.70;95.90;;;;;;6129738;23;20473;-86
2023/08/14 16:28:50;;;;;;;2.80;2.60;;;27.80;95.60;;;;;;6155376;23;20478;-84
2023/08/14 16:31:49;;;;;;;3.83;2.57;;;27.70;95.10;;;;;;6130563;23;20498;-85
2023/08/14 16:34:45;;;;;;;3.67;3.33;;;28.40;95.50;;;;;;6123644;23;20443;-84
2023/08/14 16:37:30;;;;;;;3.03;2.70;;;27.90;94.50;;;;;;6127705;23;20534;-83
2023/08/14 16:40:36;;;;;;;4.20;3.27;;;28.10;94.40;;;;;;6110703;23;20433;-84
2023/08/14 16:43:12;;;;;;;3.07;2.67;;;27.80;94.80;;;;;;6152295;23;20475;-83
2023/08/14 16:45:39;;;;;;;3.17;2.87;;;27.80;93.00;;;;;;6152752;23;20434;-84
2023/08/14 16:48:10;;;;;;;3.40;3.10;;;28.40;93.60;;;;;;6149549;23;20394;-83
2023/08/14 16:50:38;;;;;;;4.63;4.17;;;27.50;93.80;;;;;;6149215;23;21059;-82
2023/08/14 16:53:05;;;;;;;3.40;3.10;;;27.80;93.80;;;;;;6159893;23;20927;-81
2023/08/14 16:55:33;;;;;;;3.13;2.90;;;27.60;93.90;;;;;;6153648;23;20430;-83
2023/08/14 16:58:03;;;;;;;3.67;2.80;;;27.50;93.70;;;;;;6152101;23;21437;-83
2023/08/14 17:00:46;;;;;;;3.70;3.20;;;27.50;93.60;;;;;;6120200;23;20510;-83
2023/08/14 17:03:15;;;;;;;3.60;3.30;;;27.40;93.70;;;;;;6124259;23;20429;-81
2023/08/14 17:05:45;;;;;;;3.80;2.60;;;27.70;93.90;;;;;;6148241;23;20494;-83
2023/08/14 17:08:32;;;;;;;6.97;3.30;;;27.50;93.80;;;;;;6152525;23;20419;-83
2023/08/14 17:11:48;;;;;;;3.70;3.13;;;27.50;93.20;;;;;;6128722;23;21274;-84
2023/08/14 17:14:19;;;;;;;3.13;2.93;;;27.20;93.20;;;;;;6133160;23;20486;-83
2023/08/14 17:16:57;;;;;;;2.77;2.57;;;27.30;94.30;;;;;;6128579;23;20502;-84
2023/08/14 17:20:10;;;;;;;3.33;2.83;;;26.50;94.90;;;;;;6154528;23;20431;-82
2023/08/14 17:23:00;;;;;;;4.13;3.87;;;27.20;94.20;;;;;;6128954;23;21368;-83
2023/08/14 17:26:02;;;;;;;4.00;2.90;;;27.00;94.50;;;;;;6140834;23;20438;-81
2023/08/14 17:32:12;;;;;;;3.23;2.93;;;27.60;94.10;;;;;;6143330;23;20395;-83
2023/08/14 17:35:10;;;;;;;3.37;3.07;;;27.00;94.00;;;;;;6133892;23;20411;-85
2023/08/14 17:37:56;;;;;;;2.93;2.73;;;27.40;94.40;;;;;;6131112;23;20418;-83
2023/08/14 17:41:27;;;;;;;2.93;2.73;;;27.70;95.00;;;;;;6132615;23;20399;-83
2023/08/14 17:44:38;;;;;;;3.53;3.27;;;27.50;94.40;;;;;;6142615;23;20603;-83
2023/08/14 17:47:33;;;;;;;3.33;3.10;;;27.60;93.70;;;;;;6142117;23;20419;-83
2023/08/14 17:50:24;;;;;;;3.27;2.97;;;27.70;94.50;;;;;;6145406;23;20450;-82
2023/08/14 17:53:16;;;;;;;3.53;3.23;;;27.10;94.50;;;;;;6140891;23;20426;-83
2023/08/14 17:56:21;;;;;;;3.20;3.00;;;27.50;93.90;;;;;;6136006;23;20446;-82
2023/08/14 17:59:09;;;;;;;3.13;2.93;;;27.00;93.80;;;;;;6140687;23;20415;-83
2023/08/14 18:02:04;;;;;;;3.30;3.10;;;27.30;94.40;;;;;;6143248;23;20403;-84
2023/08/14 18:04:53;;;;;;;3.30;3.00;;;26.60;93.60;;;;;;6135682;23;20407;-84
2023/08/14 18:07:58;;;;;;;3.00;2.80;;;27.30;94.30;;;;;;6136497;23;20429;-85
2023/08/14 18:11:16;;;;;;;3.97;3.30;;;27.00;94.50;;;;;;6138194;23;20498;-84
2023/08/14 18:14:20;;;;;;;3.00;2.80;;;27.30;94.00;;;;;;6139750;23;20805;-84
2023/08/14 18:17:19;;;;;;;3.60;3.00;;;27.00;94.10;;;;;;6133670;23;20410;-83
2023/08/14 18:19:53;;;;;;;3.10;2.90;;;26.80;94.30;;;;;;6135676;23;20413;-86
2023/08/14 18:22:28;;;;;;;3.63;3.33;;;26.80;95.80;;;;;;6134598;23;21106;-85
2023/08/14 18:25:11;;;;;;;3.57;3.27;;;26.80;94.90;;;;;;6126612;23;20457;-84
2023/08/14 18:27:43;;;;;;;5.80;3.10;;;27.00;95.00;;;;;;6163037;23;20395;-84
2023/08/14 18:30:37;;;;;;;3.43;3.13;;;26.70;95.50;;;;;;6162425;23;20481;-83
2023/08/14 18:33:13;;;;;;;3.37;3.13;;;27.50;96.60;;;;;;6160680;23;20453;-84
2023/08/14 18:35:42;;;;;;;3.00;2.80;;;27.60;96.50;;;;;;6132125;23;20497;-83
2023/08/14 18:38:16;;;;;;;3.07;2.87;;;27.10;96.50;;;;;;6128083;23;20418;-82
2023/08/14 18:41:16;;;;;;;;;;;;;;;;;;;;;
2023/08/14 18:44:10;;;;;;;5.10;3.40;;;27.40;96.20;;;;;;6152728;23;20597;-85
2023/08/14 18:47:04;;;;;;;3.47;3.17;;;26.80;96.60;;;;;;6130606;23;20430;-84
2023/08/14 18:49:45;;;;;;;3.90;3.60;;;26.80;96.20;;;;;;6128056;23;20457;-85
2023/08/14 18:52:28;;;;;;;3.30;3.00;;;26.80;96.40;;;;;;6152084;23;20501;-85
2023/08/14 18:55:33;;;;;;;4.10;3.17;;;26.60;95.60;;;;;;6131107;23;20458;-82
2023/08/14 18:58:19;;;;;;;3.03;2.83;;;26.50;96.20;;;;;;6129354;23;20473;-84
2023/08/14 19:01:11;;;;;;;4.03;3.63;;;26.40;96.20;;;;;;6128170;23;20405;-82
2023/08/14 19:03:53;;;;;;;3.37;3.13;;;26.30;96.50;;;;;;6157227;23;20446;-84
2023/08/14 19:06:43;;;;;;;3.70;3.40;;;26.50;96.70;;;;;;6133412;23;20515;-83
2023/08/14 19:09:29;;;;;;;3.30;3.00;;;26.40;96.80;;;;;;6129028;23;20453;-83
2023/08/14 19:51:41;;;;;;;3.37;3.07;;;25.50;98.70;;;;;;6127825;23;20541;-84
2023/08/14 19:54:26;;;;;;;3.37;2.83;;;26.30;99.90;;;;;;6160241;23;20458;-83
2023/08/14 19:57:20;;;;;;;3.60;3.13;;;26.10;99.50;;;;;;6105799;23;20434;-79
2023/08/14 20:09:28;;;;;;;4.43;3.93;;;25.50;98.00;;;;;;6137042;23;20526;-82
2023/08/14 20:12:04;;;;;;;3.30;3.00;;;25.60;99.40;;;;;;6103791;23;20415;-82
2023/08/14 20:17:06;;;;;;;5.70;4.27;;;25.90;98.40;;;;;;6117828;22;21886;-83
2023/08/14 20:32:36;;;;;;;3.40;3.10;;;25.50;99.20;;;;;;6159627;23;20514;-85
2023/08/14 20:35:24;;;;;;;4.50;3.70;;;25.90;99.90;;;;;;6134438;23;20796;-84
2023/08/14 20:38:15;;;;;;;4.17;3.20;;;25.80;99.90;;;;;;6157724;23;20406;-84
2023/08/14 20:40:42;;;;;;;3.90;3.43;;;25.50;99.80;;;;;;6160052;23;20873;-82
2023/08/14 20:43:18;;;;;;;4.23;3.90;;;25.70;99.90;;;;;;6157129;23;20408;-84
2023/08/14 20:49:36;;;;;;;3.97;3.67;;;24.80;99.50;;;;;;6148624;23;20828;-83
2023/08/14 20:52:06;;;;;;;3.00;2.80;;;26.00;99.90;;;;;;6157190;23;20410;-85
2023/08/14 20:54:35;;;;;;;5.43;4.03;;;26.80;99.90;;;;;;6157539;23;20435;-84
2023/08/14 20:57:02;;;;;;;3.40;3.00;;;25.70;99.90;;;;;;6163661;23;20434;-86
2023/08/14 20:59:31;;;;;;;3.37;3.10;;;25.50;99.90;;;;;;6155963;23;20407;-83
2023/08/14 21:02:18;;;;;;;3.23;2.93;;;26.10;99.90;;;;;;6157158;23;20418;-82
2023/08/14 21:07:41;;;;;;;3.20;2.60;;;25.30;99.90;;;;;;6097219;23;20455;-85
2023/08/14 21:10:56;;;;;;;3.00;2.70;;;26.20;99.90;;;;;;6139633;23;20511;-83
2023/08/14 21:13:32;;;;;;;2.87;2.67;;;25.80;99.90;;;;;;6051043;23;20409;-84
2023/08/14 21:15:59;;;;;;;3.63;3.33;;;26.10;99.90;;;;;;6077523;23;20438;-82
2023/08/14 21:18:26;;;;;;;3.70;3.40;;;25.70;99.90;;;;;;6128462;23;20411;-82
2023/08/14 21:20:57;;;;;;;3.97;3.50;;;26.10;99.90;;;;;;6148127;23;20410;-84
2023/08/14 21:23:25;;;;;;;3.60;3.30;;;26.40;99.90;;;;;;6174402;23;20866;-86
2023/08/14 21:26:12;;;;;;;3.23;2.93;;;25.70;99.90;;;;;;6149179;23;20514;-83
2023/08/14 21:28:45;;;;;;;3.63;3.33;;;26.10;99.90;;;;;;6170079;23;20395;-85
2023/08/14 21:31:39;;;;;;;3.73;3.17;;;25.70;99.90;;;;;;6145296;23;20466;-83
2023/08/14 21:34:25;;;;;;;3.30;3.10;;;25.50;99.90;;;;;;6143426;23;20777;-83
2023/08/14 21:37:09;;;;;;;9.70;3.53;;;25.80;99.90;;;;;;6140401;23;20454;-81
2023/08/14 21:39:42;;;;;;;3.50;3.23;;;25.50;99.90;;;;;;6134871;23;20410;-84
2023/08/14 21:42:25;;;;;;;3.33;3.00;;;25.60;99.90;;;;;;6136366;23;20492;-83
2023/08/14 21:45:04;;;;;;;3.30;3.10;;;25.40;99.90;;;;;;6133159;23;20489;-83
2023/08/14 21:55:06;;;;;;;3.00;2.70;;;25.50;99.90;;;;;;6175432;23;20732;-84
2023/08/14 21:57:42;;;;;;;3.73;3.40;;;25.40;99.90;;;;;;6149043;23;20403;-85
2023/08/14 22:00:22;;;;;;;3.70;3.40;;;26.00;99.90;;;;;;6149610;23;20399;-84
2023/08/14 22:03:25;;;;;;;3.20;2.93;;;25.10;99.90;;;;;;6139892;23;20399;-84
2023/08/14 22:06:03;;;;;;;3.23;2.93;;;24.50;99.90;;;;;;6131769;23;20454;-84
2023/08/14 22:08:47;;;;;;;3.57;3.27;;;25.60;99.90;;;;;;6138160;23;20515;-83
2023/08/14 22:11:45;;;;;;;3.93;3.30;;;25.20;99.90;;;;;;6137544;23;20446;-83
2023/08/14 22:17:08;;;;;;;4.80;4.17;;;25.10;99.90;;;;;;6153114;23;20474;-85
2023/08/14 22:19:49;;;;;;;4.23;3.40;;;26.60;99.90;;;;;;6115819;23;20696;-84
2023/08/14 22:22:49;;;;;;;6.10;3.73;;;25.80;99.90;;;;;;6137908;23;20438;-82
2023/08/14 22:25:35;;;;;;;3.80;3.40;;;25.10;99.90;;;;;;6134642;23;21113;-83
2023/08/14 22:28:30;;;;;;;;;;;;;;;;;;;;;
2023/08/14 22:31:08;;;;;;;4.70;4.00;;;26.00;99.90;;;;;;6149966;23;20447;-82
2023/08/14 22:33:47;;;;;;;4.53;3.43;;;25.50;99.90;;;;;;6128680;23;20411;-84
2023/08/14 22:36:34;;;;;;;3.50;3.20;;;25.10;99.90;;;;;;6152638;23;20442;-84
2023/08/14 22:39:17;;;;;;;4.30;3.20;;;25.60;99.90;;;;;;6116930;23;20418;-82
2023/08/14 22:41:49;;;;;;;4.53;3.37;;;25.80;99.90;;;;;;6131380;23;21000;-83
2023/08/14 22:44:51;;;;;;;3.60;2.93;;;25.10;99.90;;;;;;6116134;23;20394;-83
2023/08/14 22:47:41;;;;;;;4.40;3.30;;;25.30;99.90;;;;;;6132124;23;20423;-84
2023/08/14 22:50:37;;;;;;;3.90;3.60;;;25.00;99.90;;;;;;6133352;23;20453;-82
2023/08/14 22:53:07;;;;;;;4.73;3.57;;;25.10;99.90;;;;;;6130264;23;20486;-84
2023/08/14 22:55:59;;;;;;;3.77;3.33;;;24.20;99.90;;;;;;6133641;23;20458;-83
2023/08/14 22:58:46;;;;;;;3.47;3.17;;;25.20;99.90;;;;;;6131589;23;20417;-83
2023/08/14 23:01:42;;;;;;;4.30;3.90;;;24.90;99.90;;;;;;6140001;23;20427;-82
2023/08/14 23:08:22;;;;;;;3.60;3.30;;;25.10;99.90;;;;;;6152050;23;20757;-82
2023/08/14 23:12:03;;;;;;;;;;;;;;;;;;;;;
2023/08/14 23:15:04;;;;;;;3.10;2.80;;;25.60;99.90;;;;;;6012528;23;20453;-82
2023/08/14 23:18:14;;;;;;;;;;;;;;;;;;;;;
2023/08/14 23:21:29;;;;;;;3.67;3.37;;;24.90;99.90;;;;;;5999775;23;20447;-83
2023/08/14 23:28:35;;;;;;;3.57;3.37;;;25.10;99.90;;;;;;6009926;23;20463;-84
2023/08/14 23:31:38;;;;;;;3.77;2.93;;;24.80;99.90;;;;;;5993269;23;20470;-83